Time;durP1;ratioP1;P1;durP2;ratioP2;P2;SDS_P1;SDS_P2;PMS_P1;PMS_P2;Temp;Humidity;BMP_temperature;BMP_pressure;BME280_temperature;BME280_humidity;BME280_pressure;Samples;Min_cycle;Max_cycle;Signal;HPM_P1;HPM_P2
2022/11/16 00:00:23;;;;;;;25.63;23.40;;;11.30;99.90;;;;;;5055451;28;20029;-80
2022/11/16 00:02:50;;;;;;;26.20;23.80;;;11.30;99.90;;;;;;5037857;28;20362;-81
2022/11/16 00:05:17;;;;;;;26.30;23.73;;;11.30;99.90;;;;;;5035067;28;20056;-80
2022/11/16 00:07:44;;;;;;;25.55;23.60;;;11.30;99.90;;;;;;5018023;28;20041;-80
2022/11/16 00:10:10;;;;;;;27.65;24.73;;;11.30;99.90;;;;;;5036097;28;20040;-81
2022/11/16 00:12:37;;;;;;;26.88;24.67;;;11.30;99.90;;;;;;5055524;28;20033;-80
2022/11/16 00:15:04;;;;;;;26.75;24.17;;;11.40;99.90;;;;;;5055046;28;20037;-81
2022/11/16 00:17:30;;;;;;;27.23;24.48;;;11.50;99.90;;;;;;5055028;28;20036;-80
2022/11/16 00:19:56;;;;;;;28.30;25.52;;;11.50;99.90;;;;;;5019785;28;20045;-80
2022/11/16 00:22:22;;;;;;;27.08;24.88;;;11.50;99.90;;;;;;5055093;28;20032;-80
2022/11/16 00:24:48;;;;;;;28.55;26.30;;;11.40;99.90;;;;;;5048176;28;20037;-80
2022/11/16 00:27:14;;;;;;;28.15;25.85;;;11.40;99.90;;;;;;5035611;28;20022;-80
2022/11/16 00:29:40;;;;;;;27.85;25.50;;;11.40;99.90;;;;;;5044288;28;20029;-80
2022/11/16 00:32:07;;;;;;;28.45;26.15;;;11.40;99.90;;;;;;5054801;28;20098;-81
2022/11/16 00:34:33;;;;;;;29.35;26.63;;;11.50;99.90;;;;;;5054518;28;20140;-80
2022/11/16 00:36:59;;;;;;;28.25;25.27;;;11.50;99.90;;;;;;5022019;28;20026;-80
2022/11/16 00:39:25;;;;;;;30.25;27.58;;;11.40;99.90;;;;;;5017210;28;20065;-81
2022/11/16 00:41:51;;;;;;;27.20;24.63;;;11.40;99.90;;;;;;5029790;28;20056;-81
2022/11/16 00:44:17;;;;;;;27.92;25.33;;;11.30;99.90;;;;;;5052963;28;20048;-81
2022/11/16 00:46:43;;;;;;;27.67;25.35;;;11.30;99.90;;;;;;5019187;28;20500;-80
2022/11/16 00:49:09;;;;;;;27.15;25.40;;;11.30;99.90;;;;;;5035555;28;20048;-80
2022/11/16 00:51:36;;;;;;;24.75;23.05;;;11.30;99.90;;;;;;5053191;28;20493;-80
2022/11/16 00:54:03;;;;;;;25.17;23.25;;;11.30;99.90;;;;;;5032404;28;20041;-81
2022/11/16 00:56:29;;;;;;;25.73;23.83;;;11.30;99.90;;;;;;5054216;28;20037;-80
2022/11/16 00:58:55;;;;;;;26.20;24.02;;;11.30;99.90;;;;;;5052921;28;20029;-80
2022/11/16 01:01:21;;;;;;;23.60;21.90;;;11.40;99.90;;;;;;5054235;28;20040;-80
2022/11/16 01:03:47;;;;;;;22.98;21.45;;;11.40;99.90;;;;;;5053787;28;20402;-80
2022/11/16 01:06:13;;;;;;;24.70;22.95;;;11.40;99.90;;;;;;5045444;28;20037;-80
2022/11/16 01:08:40;;;;;;;24.15;22.23;;;11.40;99.90;;;;;;5000544;28;20048;-80
2022/11/16 01:13:55;;;;;;;23.30;21.67;;;11.40;99.90;;;;;;4981462;28;20046;-80
2022/11/16 01:16:22;;;;;;;26.02;23.73;;;11.40;99.90;;;;;;4956717;28;20035;-80
2022/11/16 01:18:51;;;;;;;25.08;23.10;;;11.30;99.90;;;;;;4973453;28;20046;-80
2022/11/16 01:21:18;;;;;;;25.80;23.50;;;11.30;99.90;;;;;;4966246;28;20082;-80
2022/11/16 01:23:44;;;;;;;24.88;22.85;;;11.40;99.90;;;;;;4956795;28;20066;-80
2022/11/16 01:26:10;;;;;;;24.48;22.63;;;11.40;99.90;;;;;;4976885;28;20053;-80
2022/11/16 01:28:36;;;;;;;25.45;23.63;;;11.40;99.90;;;;;;4992159;28;20082;-80
2022/11/16 01:31:08;;;;;;;25.13;23.23;;;11.40;99.90;;;;;;4959988;28;20038;-80
2022/11/16 01:33:35;;;;;;;26.23;24.05;;;11.40;99.90;;;;;;4991825;28;20034;-80
2022/11/16 01:36:01;;;;;;;24.50;22.70;;;11.50;99.90;;;;;;4975326;28;20057;-81
2022/11/16 01:38:27;;;;;;;23.40;21.52;;;11.40;99.90;;;;;;4981364;28;20046;-81
2022/11/16 01:40:53;;;;;;;25.80;23.70;;;11.30;99.90;;;;;;4973141;28;20058;-81
2022/11/16 01:43:23;;;;;;;25.73;23.92;;;11.40;99.90;;;;;;4990566;28;20411;-81
2022/11/16 01:45:49;;;;;;;26.88;24.45;;;11.40;99.90;;;;;;4960058;28;20053;-81
2022/11/16 01:48:21;;;;;;;26.27;24.45;;;11.40;99.90;;;;;;4991408;28;20031;-81
2022/11/16 01:50:47;;;;;;;26.88;24.58;;;11.50;99.90;;;;;;5011778;28;20044;-81
2022/11/16 01:53:13;;;;;;;27.10;25.27;;;11.50;99.90;;;;;;5001500;28;20037;-81
2022/11/16 01:55:39;;;;;;;24.80;23.10;;;11.50;99.90;;;;;;5036091;28;20025;-81
2022/11/16 01:58:05;;;;;;;27.48;24.98;;;11.40;99.90;;;;;;5018405;28;20045;-81
2022/11/16 02:00:31;;;;;;;26.30;24.40;;;11.40;99.90;;;;;;4999304;28;20482;-81
2022/11/16 02:02:57;;;;;;;27.05;24.98;;;11.40;99.90;;;;;;5029785;28;20032;-81
2022/11/16 02:05:51;;;;;;;27.35;25.13;;;11.30;99.90;;;;;;5050839;28;20041;-81
2022/11/16 02:11:42;;;;;;;27.58;25.63;;;11.40;99.90;;;;;;5045571;28;20496;-81
2022/11/16 02:14:11;;;;;;;27.33;25.25;;;11.40;99.90;;;;;;5034971;28;20056;-81
2022/11/16 02:17:02;;;;;;;27.95;25.80;;;11.40;99.90;;;;;;5051871;28;20051;-81
2022/11/16 02:20:00;;;;;;;26.25;24.45;;;11.50;99.90;;;;;;5040242;28;20036;-81
2022/11/16 02:22:44;;;;;;;25.67;24.17;;;11.50;99.90;;;;;;4951502;29;20047;-81
2022/11/16 02:25:29;;;;;;;26.15;24.25;;;11.60;99.90;;;;;;4920587;29;20047;-81
2022/11/16 02:28:04;;;;;;;27.52;25.08;;;11.50;99.90;;;;;;4936938;29;20027;-80
2022/11/16 02:30:30;;;;;;;27.33;25.05;;;11.50;99.90;;;;;;4945550;28;20036;-81
2022/11/16 02:33:01;;;;;;;25.25;23.33;;;11.50;99.90;;;;;;4931524;29;20051;-80
2022/11/16 02:35:32;;;;;;;26.75;24.25;;;11.50;99.90;;;;;;4953026;29;20027;-80
2022/11/16 02:38:04;;;;;;;25.55;23.52;;;11.40;99.90;;;;;;4951321;28;20562;-80
2022/11/16 02:40:30;;;;;;;;;;;11.40;99.90;;;;;;4921137;29;20398;-81
2022/11/16 02:43:07;;;;;;;24.67;22.95;;;11.30;99.90;;;;;;4936685;29;20439;-81
2022/11/16 02:45:36;;;;;;;24.35;22.60;;;11.30;99.90;;;;;;4935588;28;20043;-80
2022/11/16 02:48:05;;;;;;;24.25;22.63;;;11.30;99.90;;;;;;4917942;29;20051;-80
2022/11/16 02:50:31;;;;;;;24.35;22.70;;;11.30;99.90;;;;;;4951899;28;20035;-80
2022/11/16 02:52:57;;;;;;;24.38;22.38;;;11.30;99.90;;;;;;4951333;28;20035;-80
2022/11/16 02:55:23;;;;;;;26.02;24.02;;;11.30;99.90;;;;;;4952385;29;20039;-81
2022/11/16 02:57:54;;;;;;;24.08;22.30;;;11.40;99.90;;;;;;4970580;28;20033;-80
2022/11/16 03:00:25;;;;;;;23.38;21.75;;;11.30;99.90;;;;;;5015834;28;20033;-81
2022/11/16 03:03:16;;;;;;;23.88;21.98;;;11.40;99.90;;;;;;5021022;28;20028;-80
2022/11/16 03:05:52;;;;;;;23.42;21.80;;;11.40;99.90;;;;;;5022040;28;20029;-81
2022/11/16 03:08:29;;;;;;;23.83;22.02;;;11.30;99.90;;;;;;5007189;28;20037;-80
2022/11/16 03:13:45;;;;;;;23.45;21.83;;;11.30;99.90;;;;;;5029265;28;20036;-80
2022/11/16 03:16:29;;;;;;;23.27;21.67;;;11.40;99.90;;;;;;5030240;28;20498;-81
2022/11/16 03:18:55;;;;;;;24.13;22.08;;;11.40;99.90;;;;;;5025014;28;20203;-80
2022/11/16 03:21:21;;;;;;;24.88;23.05;;;11.40;99.90;;;;;;5032651;28;20040;-81
2022/11/16 03:23:47;;;;;;;23.08;21.73;;;11.30;99.90;;;;;;5049970;28;20032;-80
2022/11/16 03:26:15;;;;;;;23.92;22.23;;;11.40;99.90;;;;;;5032707;28;20033;-81
2022/11/16 03:28:53;;;;;;;26.15;24.20;;;11.30;99.90;;;;;;5029745;28;20033;-81
2022/11/16 03:31:30;;;;;;;25.15;23.10;;;11.30;99.90;;;;;;5040621;28;20036;-81
2022/11/16 03:33:59;;;;;;;25.55;23.77;;;11.30;99.90;;;;;;5016477;28;20378;-81
2022/11/16 03:36:33;;;;;;;24.75;23.15;;;11.40;99.90;;;;;;5016536;28;20477;-81
2022/11/16 03:39:06;;;;;;;24.13;22.65;;;11.40;99.90;;;;;;5016990;28;20036;-80
2022/11/16 03:41:32;;;;;;;23.95;22.45;;;11.50;99.90;;;;;;5018019;28;20046;-81
2022/11/16 03:43:58;;;;;;;23.45;21.88;;;11.50;99.90;;;;;;5009130;28;20041;-81
2022/11/16 03:46:26;;;;;;;24.63;23.05;;;11.60;99.90;;;;;;5013048;28;20053;-81
2022/11/16 03:48:57;;;;;;;23.42;21.88;;;11.60;99.90;;;;;;5014283;28;20032;-80
2022/11/16 03:51:23;;;;;;;24.08;22.63;;;11.60;99.90;;;;;;5036460;28;20377;-81
2022/11/16 03:53:49;;;;;;;23.52;22.10;;;11.60;99.90;;;;;;5017419;28;20381;-81
2022/11/16 03:56:15;;;;;;;23.73;21.85;;;11.60;99.90;;;;;;5051854;28;20036;-81
2022/11/16 03:58:41;;;;;;;22.30;20.60;;;11.60;99.90;;;;;;5033410;28;20440;-81
2022/11/16 04:01:07;;;;;;;23.77;22.23;;;11.50;99.90;;;;;;5049779;28;20052;-80
2022/11/16 04:03:33;;;;;;;23.48;21.58;;;11.60;99.90;;;;;;5050817;28;20033;-81
2022/11/16 04:25:26;;;;;;;29.42;27.40;;;11.50;99.90;;;;;;5032756;28;20048;-84
2022/11/16 04:38:52;;;;;;;29.17;26.63;;;11.50;99.90;;;;;;5027390;28;20064;-85
2022/11/16 04:44:02;;;;;;;33.90;31.13;;;11.60;99.90;;;;;;5051431;28;20060;-84
2022/11/16 04:49:13;;;;;;;37.65;34.42;;;11.70;99.90;;;;;;5047380;28;20386;-83
2022/11/16 04:51:39;;;;;;;41.58;38.20;;;11.80;99.90;;;;;;5035537;28;20033;-84
2022/11/16 04:54:05;;;;;;;39.90;37.05;;;11.90;99.90;;;;;;5018779;28;20021;-84
2022/11/16 04:56:31;;;;;;;39.60;36.97;;;12.00;99.90;;;;;;5048291;28;20029;-83
2022/11/16 04:58:57;;;;;;;43.80;39.97;;;12.00;99.90;;;;;;5024325;28;20052;-85
2022/11/16 05:02:06;;;;;;;39.13;36.08;;;12.00;99.90;;;;;;4989916;28;20040;-83
2022/11/16 05:04:09;;;;;;;37.83;34.95;;;11.90;99.90;;;;;;5051573;28;20040;-83
2022/11/16 05:06:36;;;;;;;37.53;34.45;;;11.80;99.90;;;;;;5019265;28;20048;-83
2022/11/16 05:09:02;;;;;;;35.05;32.70;;;11.80;99.90;;;;;;5035811;28;20044;-83
2022/11/16 05:11:28;;;;;;;33.53;30.95;;;11.90;99.90;;;;;;5054000;28;20037;-83
2022/11/16 05:13:54;;;;;;;33.72;31.15;;;11.80;99.90;;;;;;5036334;28;20061;-83
2022/11/16 05:16:20;;;;;;;34.10;31.08;;;11.70;99.90;;;;;;5053952;28;20041;-83
2022/11/16 05:20:59;;;;;;;31.48;28.75;;;11.70;99.90;;;;;;5054067;28;20039;-84
2022/11/16 05:21:32;;;;;;;34.10;31.05;;;11.70;99.90;;;;;;5054298;28;20025;-83
2022/11/16 05:26:42;;;;;;;34.80;32.00;;;11.70;99.90;;;;;;5060996;28;20044;-83
2022/11/16 05:29:09;;;;;;;34.35;31.90;;;11.80;99.90;;;;;;5053391;28;20112;-83
2022/11/16 05:31:35;;;;;;;33.45;30.83;;;11.70;99.90;;;;;;5035086;28;20029;-84
2022/11/16 05:34:01;;;;;;;31.33;28.35;;;11.80;99.90;;;;;;5036067;28;20417;-83
2022/11/16 05:36:27;;;;;;;30.73;28.05;;;11.80;99.90;;;;;;5036326;28;20033;-84
2022/11/16 05:38:53;;;;;;;33.45;29.98;;;11.80;99.90;;;;;;5053174;28;20029;-83
2022/11/16 05:41:19;;;;;;;31.75;29.15;;;11.80;99.90;;;;;;5019562;28;20041;-83
2022/11/16 05:43:45;;;;;;;33.42;30.08;;;11.80;99.90;;;;;;5052363;28;20415;-83
2022/11/16 05:46:11;;;;;;;32.38;29.65;;;11.70;99.90;;;;;;5035699;28;20041;-84
2022/11/16 05:48:37;;;;;;;30.70;28.05;;;11.80;99.90;;;;;;5049652;28;20017;-83
2022/11/16 05:51:03;;;;;;;31.85;29.40;;;11.80;99.90;;;;;;5015836;28;20045;-84
2022/11/16 05:53:29;;;;;;;31.08;28.42;;;11.70;99.90;;;;;;4999588;28;20044;-83
2022/11/16 05:55:56;;;;;;;62.80;31.38;;;11.70;99.90;;;;;;5034152;28;20022;-83
2022/11/16 05:58:22;;;;;;;34.05;31.00;;;11.60;99.90;;;;;;5047325;28;20043;-84
2022/11/16 06:00:48;;;;;;;35.80;32.20;;;11.60;99.90;;;;;;5018661;28;20037;-83
2022/11/16 06:03:14;;;;;;;37.03;33.95;;;11.60;99.90;;;;;;5035892;28;20378;-83
2022/11/16 06:05:40;;;;;;;40.55;37.03;;;11.60;99.90;;;;;;5031957;28;20037;-84
2022/11/16 06:08:06;;;;;;;42.55;39.08;;;11.70;99.90;;;;;;5034025;28;20374;-84
2022/11/16 06:10:32;;;;;;;44.30;41.33;;;11.70;99.90;;;;;;5016187;28;20029;-84
2022/11/16 06:12:58;;;;;;;50.20;46.88;;;11.70;99.90;;;;;;5046873;28;20033;-84
2022/11/16 06:15:24;;;;;;;46.85;43.20;;;11.80;99.90;;;;;;5035244;28;20025;-84
2022/11/16 06:17:50;;;;;;;44.35;41.20;;;11.80;99.90;;;;;;5053084;28;20036;-83
2022/11/16 06:20:16;;;;;;;43.20;40.15;;;11.80;99.90;;;;;;5034159;28;20025;-84
2022/11/16 06:22:43;;;;;;;44.20;41.17;;;11.80;99.90;;;;;;5033778;28;20397;-85
2022/11/16 06:25:09;;;;;;;45.08;41.45;;;11.80;99.90;;;;;;5035394;28;20040;-85
2022/11/16 06:27:38;;;;;;;43.97;40.80;;;11.80;99.90;;;;;;5033750;28;20425;-84
2022/11/16 06:30:05;;;;;;;44.25;40.55;;;11.80;99.90;;;;;;5035650;28;20049;-84
2022/11/16 06:32:32;;;;;;;46.20;42.75;;;11.90;99.90;;;;;;5035436;28;20394;-85
2022/11/16 06:34:58;;;;;;;45.70;42.03;;;11.90;99.90;;;;;;5028947;28;20025;-84
2022/11/16 06:37:24;;;;;;;48.28;43.78;;;12.00;99.90;;;;;;5052415;28;20099;-84
2022/11/16 06:39:50;;;;;;;44.28;40.70;;;12.10;99.90;;;;;;5002285;28;20037;-84
2022/11/16 06:42:16;;;;;;;41.22;37.88;;;12.00;99.90;;;;;;5017356;28;20072;-84
2022/11/16 06:44:42;;;;;;;36.60;33.67;;;12.10;99.90;;;;;;5033551;28;20033;-86
2022/11/16 06:47:08;;;;;;;41.97;38.05;;;12.00;99.90;;;;;;5050357;28;20056;-88
2022/11/16 06:49:34;;;;;;;40.65;37.33;;;12.00;99.90;;;;;;5004841;28;20046;-88
2022/11/16 06:52:00;;;;;;;44.50;41.45;;;12.00;99.90;;;;;;5032876;28;20077;-88
2022/11/16 06:54:26;;;;;;;48.22;44.58;;;11.90;99.90;;;;;;5039492;28;20029;-83
2022/11/16 06:56:52;;;;;;;45.53;42.03;;;11.90;99.90;;;;;;5049283;28;20032;-83
2022/11/16 06:59:18;;;;;;;41.75;38.90;;;12.00;99.90;;;;;;5051575;28;20029;-83
2022/11/16 07:01:44;;;;;;;42.30;39.42;;;12.00;99.90;;;;;;5032940;28;20029;-83
2022/11/16 07:04:11;;;;;;;44.97;40.75;;;11.90;99.90;;;;;;5034473;28;20040;-85
2022/11/16 07:06:37;;;;;;;40.35;36.75;;;11.90;99.90;;;;;;5051264;28;20037;-83
2022/11/16 07:09:07;;;;;;;31.83;29.73;;;11.90;99.90;;;;;;5033083;28;20033;-85
2022/11/16 07:11:34;;;;;;;31.25;28.67;;;11.90;99.90;;;;;;5032909;28;20021;-85
2022/11/16 07:14:00;;;;;;;28.52;26.15;;;11.90;99.90;;;;;;5034999;28;20413;-86
2022/11/16 07:16:26;;;;;;;29.55;27.15;;;12.00;99.90;;;;;;5015108;28;20033;-85
2022/11/16 07:18:55;;;;;;;29.20;26.95;;;12.00;99.90;;;;;;5048757;28;20033;-82
2022/11/16 07:21:21;;;;;;;30.92;28.48;;;12.00;99.90;;;;;;5052183;28;20033;-84
2022/11/16 07:23:50;;;;;;;31.70;28.38;;;12.00;99.90;;;;;;5050804;28;20028;-86
2022/11/16 07:26:16;;;;;;;31.77;29.42;;;12.10;99.90;;;;;;5000366;28;20501;-83
2022/11/16 07:28:42;;;;;;;33.53;30.88;;;12.10;99.90;;;;;;5042041;28;20028;-84
2022/11/16 07:31:09;;;;;;;33.00;29.92;;;12.10;99.90;;;;;;5050864;28;20033;-82
2022/11/16 07:33:36;;;;;;;32.13;29.80;;;12.10;99.90;;;;;;5048800;28;20017;-84
2022/11/16 07:36:02;;;;;;;30.42;28.13;;;12.20;99.90;;;;;;5053911;28;20029;-83
2022/11/16 07:38:28;;;;;;;33.17;30.92;;;12.30;99.90;;;;;;5054624;28;20524;-83
2022/11/16 07:40:57;;;;;;;33.30;30.10;;;12.40;99.90;;;;;;5051293;28;20053;-84
2022/11/16 07:43:24;;;;;;;33.28;30.73;;;12.40;99.90;;;;;;5034462;28;20026;-85
2022/11/16 07:45:52;;;;;;;32.58;29.75;;;12.40;99.90;;;;;;5015086;28;20462;-84
2022/11/16 07:48:18;;;;;;;31.02;28.00;;;12.50;99.90;;;;;;5051214;28;20040;-83
2022/11/16 07:50:44;;;;;;;29.90;27.63;;;12.50;99.90;;;;;;5045849;28;20966;-83
2022/11/16 07:53:10;;;;;;;30.60;28.20;;;12.50;99.90;;;;;;5050994;28;20044;-84
2022/11/16 07:55:36;;;;;;;31.38;28.65;;;12.40;99.90;;;;;;5034256;28;20389;-83
2022/11/16 07:58:02;;;;;;;31.88;29.08;;;12.30;99.90;;;;;;5034032;28;20035;-82
2022/11/16 08:00:28;;;;;;;31.52;28.83;;;12.30;99.90;;;;;;5051299;28;20040;-84
2022/11/16 08:02:55;;;;;;;32.10;29.48;;;12.30;99.90;;;;;;5015406;28;20052;-87
2022/11/16 08:05:21;;;;;;;33.97;30.67;;;12.30;99.90;;;;;;5050744;28;20037;-84
2022/11/16 08:07:47;;;;;;;31.17;28.85;;;12.30;99.90;;;;;;5049973;28;20041;-84
2022/11/16 08:10:14;;;;;;;32.95;30.40;;;12.30;99.90;;;;;;5050129;28;20033;-84
2022/11/16 08:12:40;;;;;;;31.63;28.70;;;12.40;99.90;;;;;;5020066;28;20040;-83
2022/11/16 08:15:06;;;;;;;33.42;30.50;;;12.30;99.90;;;;;;5053815;28;20037;-94
2022/11/16 08:17:32;;;;;;;32.90;30.50;;;12.40;99.90;;;;;;5038596;28;20565;-83
2022/11/16 08:19:58;;;;;;;32.45;29.75;;;12.50;99.90;;;;;;5056157;28;20037;-82
2022/11/16 08:22:24;;;;;;;34.75;31.45;;;12.50;99.90;;;;;;5036028;28;20048;-85
2022/11/16 08:24:51;;;;;;;34.45;31.48;;;12.50;99.90;;;;;;5034118;28;20041;-87
2022/11/16 08:27:17;;;;;;;35.00;31.83;;;12.50;99.90;;;;;;5054533;28;20044;-88
2022/11/16 08:29:43;;;;;;;34.00;31.08;;;12.60;99.90;;;;;;5055439;28;20025;-84
2022/11/16 08:32:09;;;;;;;34.22;31.25;;;12.70;99.90;;;;;;5036735;28;20037;-83
2022/11/16 08:34:35;;;;;;;35.03;32.30;;;12.60;99.90;;;;;;5055012;28;20029;-84
2022/11/16 08:37:01;;;;;;;35.03;32.15;;;12.60;99.90;;;;;;5039787;28;20033;-84
2022/11/16 08:39:27;;;;;;;36.55;33.40;;;12.70;99.90;;;;;;5048029;28;20393;-87
2022/11/16 08:41:53;;;;;;;34.78;32.08;;;12.70;99.90;;;;;;5054032;28;20037;-85
2022/11/16 08:44:19;;;;;;;35.53;32.50;;;12.80;99.90;;;;;;5056523;28;20076;-84
2022/11/16 08:46:45;;;;;;;35.35;32.00;;;12.80;99.90;;;;;;5049080;28;20049;-84
2022/11/16 08:49:11;;;;;;;34.97;31.60;;;12.90;99.90;;;;;;5023487;28;20406;-85
2022/11/16 08:51:37;;;;;;;35.15;32.20;;;12.90;99.90;;;;;;5051339;28;20037;-83
2022/11/16 08:54:05;;;;;;;35.55;32.55;;;13.00;99.90;;;;;;5029784;28;20389;-83
2022/11/16 08:56:31;;;;;;;38.13;34.33;;;13.00;99.90;;;;;;5054444;28;20052;-83
2022/11/16 08:58:57;;;;;;;38.33;34.72;;;13.00;99.90;;;;;;5034665;28;20024;-84
2022/11/16 09:01:24;;;;;;;35.47;31.88;;;13.00;99.90;;;;;;5054209;28;20401;-84
2022/11/16 09:03:51;;;;;;;38.22;34.75;;;13.00;99.90;;;;;;5036867;28;20025;-84
2022/11/16 09:06:17;;;;;;;39.65;35.55;;;13.00;99.90;;;;;;5038457;28;20041;-84
2022/11/16 09:08:44;;;;;;;40.42;33.35;;;13.10;99.90;;;;;;5027227;28;20489;-84
2022/11/16 09:11:12;;;;;;;37.50;33.53;;;13.00;99.90;;;;;;5016629;28;20395;-84
2022/11/16 09:13:39;;;;;;;39.20;35.33;;;12.90;99.90;;;;;;5036181;28;20029;-84
2022/11/16 09:16:05;;;;;;;42.15;37.70;;;13.00;99.90;;;;;;5035267;28;20041;-84
2022/11/16 09:18:32;;;;;;;41.85;37.92;;;13.10;99.90;;;;;;5030031;28;20042;-84
2022/11/16 09:20:58;;;;;;;35.45;31.42;;;13.10;99.90;;;;;;5033053;28;20389;-84
2022/11/16 09:23:24;;;;;;;36.08;31.75;;;13.20;99.90;;;;;;5018610;28;20029;-84
2022/11/16 09:25:50;;;;;;;37.55;33.40;;;13.10;99.90;;;;;;5037230;28;20040;-84
2022/11/16 09:28:17;;;;;;;36.13;32.72;;;13.20;99.90;;;;;;5033275;28;20033;-84
2022/11/16 09:30:47;;;;;;;37.47;33.67;;;13.20;99.90;;;;;;5034034;28;20038;-83
2022/11/16 09:33:13;;;;;;;34.20;31.13;;;13.20;99.90;;;;;;5040794;28;20024;-85
2022/11/16 09:35:39;;;;;;;35.03;31.42;;;13.30;99.90;;;;;;5035622;28;20030;-85
2022/11/16 09:38:06;;;;;;;33.72;29.85;;;13.40;99.90;;;;;;5018910;28;20045;-83
2022/11/16 09:40:34;;;;;;;34.92;31.73;;;13.30;99.90;;;;;;5053273;28;20033;-83
2022/11/16 09:43:21;;;;;;;37.65;32.92;;;13.40;99.90;;;;;;5022291;28;20036;-77
2022/11/16 09:45:57;;;;;;;35.63;32.13;;;13.50;99.90;;;;;;5040876;28;20033;-84
2022/11/16 09:48:23;;;;;;;41.17;34.28;;;13.50;99.90;;;;;;5053350;28;20037;-83
2022/11/16 09:50:52;;;;;;;36.78;30.92;;;13.50;99.90;;;;;;5034943;28;20032;-84
2022/11/16 09:53:18;;;;;;;34.08;30.50;;;13.50;99.90;;;;;;5017040;28;20041;-84
2022/11/16 09:56:09;;;;;;;41.35;33.75;;;13.40;99.90;;;;;;5036554;28;20052;-83
2022/11/16 09:58:40;;;;;;;;;;;13.50;99.90;;;;;;5033230;28;20068;-83
2022/11/16 10:01:26;;;;;;;36.13;31.90;;;13.50;99.90;;;;;;5047656;28;19912;-81
2022/11/16 10:04:07;;;;;;;36.30;32.40;;;13.50;99.90;;;;;;5033648;28;20029;-82
2022/11/16 10:07:02;;;;;;;37.60;33.88;;;13.50;99.90;;;;;;5025495;28;20036;-82
2022/11/16 10:09:28;;;;;;;37.25;33.35;;;13.50;99.90;;;;;;4955369;28;20031;-85
2022/11/16 10:12:13;;;;;;;36.88;33.03;;;13.50;99.90;;;;;;4939588;28;20053;-83
2022/11/16 10:15:01;;;;;;;41.58;34.22;;;13.50;99.90;;;;;;4955881;28;20037;-82
2022/11/16 10:17:39;;;;;;;42.63;33.88;;;13.50;99.90;;;;;;4969902;28;20031;-82
2022/11/16 10:20:10;;;;;;;37.60;33.47;;;13.60;99.90;;;;;;4970969;28;20058;-81
2022/11/16 10:22:39;;;;;;;38.35;33.45;;;13.70;99.90;;;;;;4969845;28;20387;-81
2022/11/16 10:25:10;;;;;;;44.47;32.40;;;13.70;99.90;;;;;;4952347;28;20050;-82
2022/11/16 10:27:37;;;;;;;;;;;13.70;99.90;;;;;;4969765;28;20050;-81
2022/11/16 10:30:13;;;;;;;43.28;31.02;;;13.80;99.90;;;;;;4971527;28;19906;-86
2022/11/16 10:32:45;;;;;;;35.47;29.13;;;13.80;99.90;;;;;;4954766;28;20051;-85
2022/11/16 10:35:11;;;;;;;36.25;31.38;;;13.80;99.90;;;;;;4940187;28;20043;-82
2022/11/16 10:37:57;;;;;;;42.28;31.25;;;13.80;99.90;;;;;;4969065;28;20043;-82
2022/11/16 10:40:29;;;;;;;36.75;32.70;;;13.70;99.90;;;;;;4955667;28;20503;-86
2022/11/16 10:43:01;;;;;;;42.10;32.88;;;13.70;99.90;;;;;;4951263;28;20054;-81
2022/11/16 10:45:34;;;;;;;36.17;32.90;;;13.70;99.90;;;;;;4966205;28;20044;-81
2022/11/16 10:48:14;;;;;;;37.60;30.15;;;13.70;99.90;;;;;;5016817;28;20041;-82
2022/11/16 10:50:45;;;;;;;38.40;31.92;;;13.70;99.90;;;;;;5018494;28;20029;-82
2022/11/16 10:53:13;;;;;;;;;;;13.70;99.90;;;;;;5052576;28;20021;-81
2022/11/16 10:55:39;;;;;;;51.13;36.75;;;13.80;99.90;;;;;;5016721;28;19909;-86
2022/11/16 10:58:05;;;;;;;37.20;32.88;;;13.80;99.90;;;;;;5032584;28;20036;-84
2022/11/16 11:00:36;;;;;;;30.95;27.67;;;13.80;99.90;;;;;;5051441;28;20036;-87
2022/11/16 11:03:03;;;;;;;31.45;28.10;;;13.80;99.90;;;;;;5028341;28;20478;-90
2022/11/16 11:05:29;;;;;;;43.50;27.00;;;13.80;99.90;;;;;;5018091;28;20055;-89
2022/11/16 11:08:02;;;;;;;34.80;29.60;;;13.80;99.90;;;;;;5016055;28;20489;-87
2022/11/16 11:10:31;;;;;;;30.85;27.25;;;13.80;99.90;;;;;;5033007;28;20382;-83
2022/11/16 11:13:09;;;;;;;37.47;27.55;;;13.80;99.90;;;;;;5020947;28;20045;-88
2022/11/16 11:15:37;;;;;;;32.90;27.20;;;13.80;99.90;;;;;;5045058;28;20420;-87
2022/11/16 11:18:22;;;;;;;35.30;27.83;;;13.80;99.90;;;;;;5006426;28;20037;-91
2022/11/16 11:21:12;;;;;;;38.80;27.42;;;13.80;99.90;;;;;;5051866;28;20032;-88
2022/11/16 11:23:51;;;;;;;33.43;28.53;;;13.90;99.90;;;;;;5019631;28;20068;-85
2022/11/16 11:26:33;;;;;;;36.63;28.45;;;13.90;99.90;;;;;;5017072;28;20053;-86
2022/11/16 11:29:00;;;;;;;38.90;29.23;;;13.90;99.90;;;;;;5049918;28;20029;-84
2022/11/16 11:31:33;;;;;;;34.75;29.60;;;13.90;99.90;;;;;;5016035;28;20048;-85
2022/11/16 11:34:08;;;;;;;36.60;30.83;;;13.90;99.90;;;;;;5027662;28;20032;-84
2022/11/16 11:36:48;;;;;;;39.67;31.02;;;13.90;99.90;;;;;;5050149;28;20036;-84
2022/11/16 11:39:15;;;;;;;42.53;32.45;;;13.90;99.90;;;;;;5032342;28;20065;-85
2022/11/16 11:41:45;;;;;;;37.50;33.67;;;13.90;99.90;;;;;;5051651;28;20051;-84
2022/11/16 11:44:15;;;;;;;38.17;34.13;;;14.00;99.90;;;;;;5056123;28;20028;-85
2022/11/16 11:46:50;;;;;;;47.28;34.33;;;14.00;99.90;;;;;;5037084;28;20049;-84
2022/11/16 11:49:22;;;;;;;36.38;32.42;;;14.00;99.90;;;;;;5037954;28;20496;-84
2022/11/16 11:51:49;;;;;;;38.08;33.53;;;14.00;99.90;;;;;;5033900;28;20029;-85
2022/11/16 11:54:37;;;;;;;36.95;32.67;;;13.90;99.90;;;;;;5017355;28;20051;-84
2022/11/16 11:57:03;;;;;;;38.55;34.53;;;13.90;99.90;;;;;;5018109;28;20029;-84
2022/11/16 11:59:29;;;;;;;43.25;37.10;;;14.00;99.90;;;;;;5038548;28;20036;-85
2022/11/16 12:02:08;;;;;;;41.13;36.17;;;13.90;99.90;;;;;;5036570;28;20059;-85
2022/11/16 12:04:37;;;;;;;42.00;37.72;;;14.00;99.90;;;;;;5038785;28;20036;-84
2022/11/16 12:07:31;;;;;;;58.83;53.40;;;13.90;99.90;;;;;;5037377;28;20051;-84
2022/11/16 12:09:59;;;;;;;60.35;55.13;;;14.00;99.90;;;;;;5037827;28;20386;-84
2022/11/16 12:12:38;;;;;;;64.47;58.67;;;13.90;99.90;;;;;;5053513;28;20041;-82
2022/11/16 12:15:22;;;;;;;57.78;53.33;;;13.90;99.90;;;;;;5036857;28;20048;-83
2022/11/16 12:18:10;;;;;;;62.42;56.55;;;13.90;99.90;;;;;;5054484;28;20029;-83
2022/11/16 12:20:58;;;;;;;62.92;57.55;;;13.90;99.90;;;;;;5054143;28;20025;-82
2022/11/16 12:23:43;;;;;;;60.05;54.53;;;13.90;99.90;;;;;;5037244;28;20048;-82
2022/11/16 12:26:17;;;;;;;56.17;51.05;;;14.00;99.90;;;;;;5055115;28;20036;-83
2022/11/16 12:28:59;;;;;;;56.70;51.72;;;14.00;99.90;;;;;;5038636;28;20512;-82
2022/11/16 12:31:44;;;;;;;49.13;45.15;;;14.00;99.90;;;;;;5049479;28;20033;-83
2022/11/16 12:34:17;;;;;;;37.75;34.70;;;14.00;99.90;;;;;;5042382;28;20275;-82
2022/11/16 12:36:46;;;;;;;38.35;35.30;;;13.90;99.90;;;;;;5076502;28;20013;-83
2022/11/16 12:39:23;;;;;;;41.60;38.47;;;13.90;99.90;;;;;;5051528;28;20463;-83
2022/11/16 12:41:52;;;;;;;39.80;37.30;;;14.00;99.90;;;;;;5034595;28;20063;-83
2022/11/16 12:44:28;;;;;;;39.75;36.95;;;14.00;99.90;;;;;;5058514;28;20017;-83
2022/11/16 12:47:09;;;;;;;41.47;38.55;;;14.00;99.90;;;;;;5061944;28;20041;-83
2022/11/16 12:49:57;;;;;;;39.05;36.40;;;14.00;99.90;;;;;;5070914;28;20047;-82
2022/11/16 12:52:45;;;;;;;36.25;34.00;;;14.00;99.90;;;;;;5036743;28;20101;-83
2022/11/16 12:55:17;;;;;;;37.20;34.85;;;14.00;99.90;;;;;;5046101;28;20016;-83
2022/11/16 12:57:49;;;;;;;;;;;14.00;99.90;;;;;;5079292;28;20017;-83
2022/11/16 13:00:16;;;;;;;33.83;31.55;;;14.00;99.90;;;;;;5048917;28;19928;-83
2022/11/16 13:03:00;;;;;;;34.65;32.50;;;14.00;99.90;;;;;;5003575;28;20048;-84
2022/11/16 13:05:41;;;;;;;36.17;33.78;;;14.00;99.90;;;;;;5054308;28;20025;-83
2022/11/16 13:08:31;;;;;;;35.88;33.35;;;14.00;99.90;;;;;;5069768;28;20049;-83
2022/11/16 13:11:14;;;;;;;35.63;33.28;;;14.10;99.90;;;;;;5025628;28;20496;-83
2022/11/16 13:13:41;;;;;;;36.97;34.60;;;14.00;99.90;;;;;;5034423;28;20504;-83
2022/11/16 13:16:07;;;;;;;36.38;33.72;;;14.10;99.90;;;;;;5016188;28;20044;-83
2022/11/16 13:18:34;;;;;;;37.17;34.78;;;14.10;99.90;;;;;;5009406;28;20029;-83
2022/11/16 13:21:04;;;;;;;40.08;36.90;;;14.10;99.90;;;;;;5002791;28;20041;-83
2022/11/16 13:23:30;;;;;;;39.15;36.45;;;14.00;99.90;;;;;;5054075;28;20025;-83
2022/11/16 13:26:28;;;;;;;40.05;37.58;;;14.00;99.90;;;;;;5052052;28;20493;-83
2022/11/16 13:29:04;;;;;;;34.28;31.98;;;14.00;99.90;;;;;;5036660;28;20060;-83